Time,TemperatureF,DewpointF,PressureIn,WindDirection,WindDirectionDegrees,WindSpeedMPH,WindSpeedGustMPH,Humidity,HourlyPrecipIn,Conditions,Clouds,dailyrainin,SoftwareType,DateUTC
2013-08-08 00:06:00,57.0,49.0,29.85,NE,56,0.0,-999.0,74,-99.99,,,0.00,weatherlink.com 1.10,2013-08-08 07:06:00,
2013-08-08 00:21:00,56.6,49.0,29.84,NE,56,0.0,-999.0,75,-99.99,,,0.00,weatherlink.com 1.10,2013-08-08 07:21:00,
2013-08-08 00:36:00,55.9,48.0,29.84,NE,56,0.0,-999.0,76,-99.99,,,0.00,weatherlink.com 1.10,2013-08-08 07:36:00,
2013-08-08 00:51:00,54.9,47.0,29.85,NE,56,0.0,-999.0,75,-99.99,,,0.00,weatherlink.com 1.10,2013-08-08 07:51:00,
2013-08-08 01:06:00,54.0,47.0,29.85,NE,56,0.0,-999.0,76,-99.99,,,0.00,weatherlink.com 1.10,2013-08-08 08:06:00,
2013-08-08 01:22:00,52.9,47.0,29.85,NE,56,0.0,-999.0,80,-99.99,,,0.00,weatherlink.com 1.10,2013-08-08 08:22:00,
2013-08-08 01:37:00,52.7,47.0,29.85,NE,56,0.0,-999.0,81,-99.99,,,0.00,weatherlink.com 1.10,2013-08-08 08:37:00,
2013-08-08 01:52:00,52.4,47.0,29.85,NE,56,0.0,-999.0,82,-99.99,,,0.00,weatherlink.com 1.10,2013-08-08 08:52:00,
2013-08-08 02:07:00,52.0,47.0,29.85,NE,56,0.0,-999.0,83,-99.99,,,0.00,weatherlink.com 1.10,2013-08-08 09:07:00,
2013-08-08 02:22:00,51.2,46.0,29.86,NE,56,0.0,-999.0,81,-99.99,,,0.00,weatherlink.com 1.10,2013-08-08 09:22:00,
2013-08-08 02:37:00,50.6,45.0,29.86,NE,56,0.0,-999.0,82,-99.99,,,0.00,weatherlink.com 1.10,2013-08-08 09:37:00,
2013-08-08 02:52:00,50.6,46.0,29.86,NE,56,0.0,-999.0,84,-99.99,,,0.00,weatherlink.com 1.10,2013-08-08 09:52:00,
2013-08-08 03:07:00,49.9,45.0,29.86,NE,56,0.0,-999.0,84,-99.99,,,0.00,weatherlink.com 1.10,2013-08-08 10:07:00,
2013-08-08 03:22:00,49.7,46.0,29.86,NE,56,0.0,-999.0,86,-99.99,,,0.00,weatherlink.com 1.10,2013-08-08 10:22:00,
2013-08-08 03:37:00,49.2,45.0,29.87,NE,56,0.0,-999.0,85,-99.99,,,0.00,weatherlink.com 1.10,2013-08-08 10:37:00,
2013-08-08 03:52:00,48.9,45.0,29.87,NE,56,0.0,-999.0,87,-99.99,,,0.00,weatherlink.com 1.10,2013-08-08 10:52:00,
2013-08-08 04:07:00,48.3,44.0,29.87,NE,56,0.0,-999.0,85,-99.99,,,0.00,weatherlink.com 1.10,2013-08-08 11:07:00,
2013-08-08 04:22:00,47.9,44.0,29.87,NE,56,0.0,-999.0,86,-99.99,,,0.00,weatherlink.com 1.10,2013-08-08 11:22:00,
2013-08-08 04:37:00,48.3,45.0,29.88,NE,56,0.0,-999.0,88,-99.99,,,0.00,weatherlink.com 1.10,2013-08-08 11:37:00,
2013-08-08 04:52:00,47.5,43.0,29.89,NE,56,0.0,-999.0,85,-99.99,,,0.00,weatherlink.com 1.10,2013-08-08 11:52:00,
2013-08-08 05:07:00,47.4,44.0,29.89,NE,56,0.0,-999.0,88,-99.99,,,0.00,weatherlink.com 1.10,2013-08-08 12:07:00,
2013-08-08 05:22:00,47.0,44.0,29.89,NE,56,0.0,-999.0,88,-99.99,,,0.00,weatherlink.com 1.10,2013-08-08 12:22:00,
2013-08-08 05:37:00,46.5,43.0,29.89,NE,56,0.0,-999.0,88,-99.99,,,0.00,weatherlink.com 1.10,2013-08-08 12:37:00,
2013-08-08 05:52:00,45.9,43.0,29.90,NE,56,0.0,-999.0,88,-99.99,,,0.00,weatherlink.com 1.10,2013-08-08 12:52:00,
2013-08-08 06:07:00,46.7,44.0,29.90,NE,56,0.0,-999.0,90,-99.99,,,0.00,weatherlink.com 1.10,2013-08-08 13:07:00,
2013-08-08 06:22:00,47.6,45.0,29.91,NE,56,0.0,-999.0,89,-99.99,,,0.00,weatherlink.com 1.10,2013-08-08 13:22:00,
2013-08-08 06:37:00,47.6,44.0,29.91,NE,56,0.0,-999.0,88,-99.99,,,0.00,weatherlink.com 1.10,2013-08-08 13:37:00,
2013-08-08 06:52:00,48.8,45.0,29.91,NE,56,0.0,-999.0,86,-99.99,,,0.00,weatherlink.com 1.10,2013-08-08 13:52:00,
2013-08-08 07:07:00,49.7,45.0,29.91,NE,56,0.0,-999.0,85,-99.99,,,0.00,weatherlink.com 1.10,2013-08-08 14:07:00,
2013-08-08 07:22:00,51.4,47.0,29.91,NE,56,0.0,-999.0,84,-99.99,,,0.00,weatherlink.com 1.10,2013-08-08 14:22:00,
2013-08-08 07:37:00,53.3,48.0,29.91,NE,56,0.0,-999.0,81,-99.99,,,0.00,weatherlink.com 1.10,2013-08-08 14:37:00,
2013-08-08 07:52:00,55.8,49.0,29.91,NE,56,0.0,-999.0,77,-99.99,,,0.00,weatherlink.com 1.10,2013-08-08 14:52:00,
2013-08-08 08:07:00,60.2,50.0,29.91,NE,56,0.0,-999.0,70,-99.99,,,0.00,weatherlink.com 1.10,2013-08-08 15:07:00,
2013-08-08 08:22:00,63.5,50.0,29.91,NE,56,0.0,-999.0,62,-99.99,,,0.00,weatherlink.com 1.10,2013-08-08 15:22:00,
2013-08-08 08:38:00,66.2,49.0,29.90,NE,56,0.0,-999.0,55,-99.99,,,0.00,weatherlink.com 1.10,2013-08-08 15:38:00,
2013-08-08 08:53:00,69.1,50.0,29.90,NE,56,0.0,-999.0,50,-99.99,,,0.00,weatherlink.com 1.10,2013-08-08 15:53:00,
2013-08-08 09:08:00,71.4,49.0,29.90,ENE,76,0.0,-999.0,46,-99.99,,,0.00,weatherlink.com 1.10,2013-08-08 16:08:00,
2013-08-08 09:23:00,72.2,50.0,29.90,ENE,76,0.0,-999.0,45,-99.99,,,0.00,weatherlink.com 1.10,2013-08-08 16:23:00,
2013-08-08 09:38:00,73.4,48.0,29.90,NW,325,1.0,-999.0,41,-99.99,,,0.00,weatherlink.com 1.10,2013-08-08 16:38:00,
2013-08-08 09:53:00,74.8,47.0,29.90,NW,325,0.0,-999.0,38,-99.99,,,0.00,weatherlink.com 1.10,2013-08-08 16:53:00,
2013-08-08 10:08:00,75.8,48.0,29.90,WNW,298,0.0,-999.0,38,-99.99,,,0.00,weatherlink.com 1.10,2013-08-08 17:08:00,
2013-08-08 10:23:00,75.5,49.0,29.90,West,264,0.0,-999.0,39,-99.99,,,0.00,weatherlink.com 1.10,2013-08-08 17:23:00,
2013-08-08 10:38:00,77.2,48.0,29.90,ENE,76,1.0,-999.0,36,-99.99,,,0.00,weatherlink.com 1.10,2013-08-08 17:38:00,
2013-08-08 10:53:00,78.2,48.0,29.89,West,270,1.0,-999.0,35,-99.99,,,0.00,weatherlink.com 1.10,2013-08-08 17:53:00,
2013-08-08 11:08:00,78.7,50.0,29.89,West,275,1.0,-999.0,36,-99.99,,,0.00,weatherlink.com 1.10,2013-08-08 18:08:00,
2013-08-08 11:23:00,79.9,47.0,29.89,West,278,1.0,-999.0,32,-99.99,,,0.00,weatherlink.com 1.10,2013-08-08 18:23:00,
2013-08-08 11:38:00,79.6,48.0,29.88,WNW,287,2.0,-999.0,33,-99.99,,,0.00,weatherlink.com 1.10,2013-08-08 18:38:00,
2013-08-08 11:53:00,80.4,48.0,29.88,WNW,302,0.0,-999.0,32,-99.99,,,0.00,weatherlink.com 1.10,2013-08-08 18:53:00,
2013-08-08 12:09:00,80.5,48.0,29.87,WNW,285,4.0,-999.0,32,-99.99,,,0.00,weatherlink.com 1.10,2013-08-08 19:09:00,
2013-08-08 12:23:00,81.7,47.0,29.87,WNW,290,0.0,-999.0,30,-99.99,,,0.00,weatherlink.com 1.10,2013-08-08 19:23:00,
2013-08-08 12:38:00,82.7,47.0,29.86,West,272,2.0,-999.0,29,-99.99,,,0.00,weatherlink.com 1.10,2013-08-08 19:38:00,
2013-08-08 12:53:00,82.9,48.0,29.86,West,273,0.0,-999.0,30,-99.99,,,0.00,weatherlink.com 1.10,2013-08-08 19:53:00,
2013-08-08 13:08:00,84.2,50.0,29.85,WNW,293,8.0,-999.0,30,-99.99,,,0.00,weatherlink.com 1.10,2013-08-08 20:08:00,
2013-08-08 13:23:00,83.3,48.0,29.85,WNW,289,3.0,-999.0,29,-99.99,,,0.00,weatherlink.com 1.10,2013-08-08 20:23:00,
2013-08-08 13:38:00,85.6,49.0,29.84,WNW,292,3.0,-999.0,28,-99.99,,,0.00,weatherlink.com 1.10,2013-08-08 20:38:00,
2013-08-08 13:53:00,86.0,49.0,29.84,WNW,297,6.0,-999.0,28,-99.99,,,0.00,weatherlink.com 1.10,2013-08-08 20:53:00,
2013-08-08 14:23:00,87.2,48.0,29.83,NW,324,5.0,-999.0,26,-99.99,,,0.00,weatherlink.com 1.10,2013-08-08 21:23:00,
2013-08-08 14:38:00,86.8,48.0,29.83,NNW,327,4.0,-999.0,26,-99.99,,,0.00,weatherlink.com 1.10,2013-08-08 21:38:00,
2013-08-08 14:53:00,87.2,46.0,29.82,NE,47,0.0,-999.0,24,-99.99,,,0.00,weatherlink.com 1.10,2013-08-08 21:53:00,
2013-08-08 15:08:00,87.1,46.0,29.82,NW,317,10.0,-999.0,24,-99.99,,,0.00,weatherlink.com 1.10,2013-08-08 22:08:00,
2013-08-08 15:23:00,87.6,44.0,29.81,WNW,282,3.0,-999.0,22,-99.99,,,0.00,weatherlink.com 1.10,2013-08-08 22:23:00,
2013-08-08 15:38:00,88.2,46.0,29.81,NW,311,4.0,-999.0,23,-99.99,,,0.00,weatherlink.com 1.10,2013-08-08 22:38:00,
2013-08-08 15:54:00,88.8,44.0,29.80,NE,39,1.0,-999.0,21,-99.99,,,0.00,weatherlink.com 1.10,2013-08-08 22:54:00,
2013-08-08 16:09:00,89.0,45.0,29.80,NW,304,3.0,-999.0,22,-99.99,,,0.00,weatherlink.com 1.10,2013-08-08 23:09:00,
2013-08-08 16:24:00,88.3,46.0,29.80,NW,309,9.0,-999.0,23,-99.99,,,0.00,weatherlink.com 1.10,2013-08-08 23:24:00,
2013-08-08 16:39:00,88.1,46.0,29.80,WNW,285,6.0,-999.0,23,-99.99,,,0.00,weatherlink.com 1.10,2013-08-08 23:39:00,
2013-08-08 17:09:00,88.3,48.0,29.80,NW,309,2.0,-999.0,25,-99.99,,,0.00,weatherlink.com 1.10,2013-08-09 00:09:00,
2013-08-08 17:39:00,87.6,49.0,29.79,WNW,298,1.0,-999.0,26,-99.99,,,0.00,weatherlink.com 1.10,2013-08-09 00:39:00,
2013-08-08 17:54:00,86.4,49.0,29.79,NW,317,0.0,-999.0,27,-99.99,,,0.00,weatherlink.com 1.10,2013-08-09 00:54:00,
2013-08-08 18:09:00,85.8,49.0,29.78,NW,304,4.0,-999.0,28,-99.99,,,0.00,weatherlink.com 1.10,2013-08-09 01:09:00,
2013-08-08 18:24:00,86.5,50.0,29.78,NW,304,7.0,-999.0,28,-99.99,,,0.00,weatherlink.com 1.10,2013-08-09 01:24:00,
2013-08-08 18:39:00,85.9,49.0,29.78,WNW,295,3.0,-999.0,28,-99.99,,,0.00,weatherlink.com 1.10,2013-08-09 01:39:00,
2013-08-08 18:54:00,86.1,49.0,29.77,NW,304,4.0,-999.0,28,-99.99,,,0.00,weatherlink.com 1.10,2013-08-09 01:54:00,
2013-08-08 19:09:00,85.2,50.0,29.78,WNW,300,2.0,-999.0,29,-99.99,,,0.00,weatherlink.com 1.10,2013-08-09 02:09:00,
2013-08-08 19:24:00,83.6,49.0,29.78,NW,306,4.0,-999.0,30,-99.99,,,0.00,weatherlink.com 1.10,2013-08-09 02:24:00,
2013-08-08 19:39:00,82.3,50.0,29.78,WNW,296,2.0,-999.0,32,-99.99,,,0.00,weatherlink.com 1.10,2013-08-09 02:39:00,
2013-08-08 20:09:00,79.3,49.0,29.78,WNW,296,1.0,-999.0,35,-99.99,,,0.00,weatherlink.com 1.10,2013-08-09 03:09:00,
2013-08-08 20:39:00,77.2,51.0,29.79,WNW,296,0.0,-999.0,40,-99.99,,,0.00,weatherlink.com 1.10,2013-08-09 03:39:00,
2013-08-08 20:54:00,74.7,52.0,29.79,WNW,296,0.0,-999.0,45,-99.99,,,0.00,weatherlink.com 1.10,2013-08-09 03:54:00,
2013-08-08 21:09:00,72.7,53.0,29.79,WNW,296,0.0,-999.0,50,-99.99,,,0.00,weatherlink.com 1.10,2013-08-09 04:09:00,
2013-08-08 21:24:00,70.6,54.0,29.79,WNW,296,0.0,-999.0,55,-99.99,,,0.00,weatherlink.com 1.10,2013-08-09 04:24:00,
2013-08-08 21:39:00,69.7,54.0,29.79,WNW,296,0.0,-999.0,57,-99.99,,,0.00,weatherlink.com 1.10,2013-08-09 04:39:00,
2013-08-08 21:54:00,68.7,52.0,29.80,WNW,296,0.0,-999.0,56,-99.99,,,0.00,weatherlink.com 1.10,2013-08-09 04:54:00,
2013-08-08 22:09:00,67.9,53.0,29.80,WNW,296,0.0,-999.0,60,-99.99,,,0.00,weatherlink.com 1.10,2013-08-09 05:09:00,
2013-08-08 22:24:00,66.9,54.0,29.80,WNW,296,0.0,-999.0,63,-99.99,,,0.00,weatherlink.com 1.10,2013-08-09 05:24:00,
2013-08-08 22:39:00,65.3,54.0,29.79,WNW,296,0.0,-999.0,67,-99.99,,,0.00,weatherlink.com 1.10,2013-08-09 05:39:00,
2013-08-08 22:54:00,64.1,54.0,29.79,WNW,296,0.0,-999.0,69,-99.99,,,0.00,weatherlink.com 1.10,2013-08-09 05:54:00,
2013-08-08 23:09:00,63.7,54.0,29.79,WNW,296,0.0,-999.0,70,-99.99,,,0.00,weatherlink.com 1.10,2013-08-09 06:09:00,
2013-08-08 23:24:00,63.0,54.0,29.79,WNW,296,0.0,-999.0,72,-99.99,,,0.00,weatherlink.com 1.10,2013-08-09 06:24:00,
2013-08-08 23:39:00,62.7,54.0,29.79,WNW,296,0.0,-999.0,74,-99.99,,,0.00,weatherlink.com 1.10,2013-08-09 06:39:00,
2013-08-08 23:54:00,61.9,54.0,29.79,WNW,296,0.0,-999.0,74,-99.99,,,0.00,weatherlink.com 1.10,2013-08-09 06:54:00,